TNU5532 WARR-WALL
Flight info
| Callsign | TNU5532 |
|---|---|
| Flight time | 1h 36m |
| Altitude | 35000 |
| Route | RAMPY T13 IKAPI T11 KAYAN |
| Aircraft | A320/M-SDE3FGHIRWY/LB1 |
Departure
| Time | 2026-05-08 13:18 |
|---|---|
| Airport | Juanda International Airport (WARR) |
Arrival
| Time | 2026-05-08 14:54 |
|---|---|
| Airport | Sultan Aji Muhammad Sulaiman Sepinggan International Airport (WALL) |
| Time | Latitude | Longitude | Altitude | Speed | Heading |
|---|---|---|---|---|---|
| 2026-05-08 12:48 | -7.37616 | 112.79647 | 9 ft | 0 kts | 8° |
| 2026-05-08 13:00 | -7.37618 | 112.79646 | 10 ft | 2 kts | 8° |
| 2026-05-08 13:00 | -7.37637 | 112.79644 | 10 ft | 3 kts | 8° |
| 2026-05-08 13:00 | -7.37658 | 112.79641 | 11 ft | 3 kts | 7° |
| 2026-05-08 13:01 | -7.37680 | 112.79639 | 11 ft | 3 kts | 2° |
| 2026-05-08 13:01 | -7.37699 | 112.79639 | 12 ft | 2 kts | 331° |
| 2026-05-08 13:01 | -7.37708 | 112.79646 | 12 ft | 2 kts | 290° |
| 2026-05-08 13:01 | -7.37711 | 112.79657 | 10 ft | 2 kts | 280° |
| 2026-05-08 13:02 | -7.37712 | 112.79660 | 10 ft | 0 kts | 280° |
| 2026-05-08 13:06 | -7.37708 | 112.79639 | 9 ft | 4 kts | 280° |
| 2026-05-08 13:06 | -7.37704 | 112.79616 | 10 ft | 3 kts | 279° |
| 2026-05-08 13:06 | -7.37700 | 112.79587 | 9 ft | 5 kts | 279° |
| 2026-05-08 13:07 | -7.37695 | 112.79559 | 9 ft | 4 kts | 279° |
| 2026-05-08 13:07 | -7.37692 | 112.79536 | 9 ft | 3 kts | 279° |
| 2026-05-08 13:07 | -7.37688 | 112.79513 | 9 ft | 5 kts | 279° |
| 2026-05-08 13:07 | -7.37681 | 112.79467 | 9 ft | 8 kts | 279° |
| 2026-05-08 13:08 | -7.37671 | 112.79408 | 9 ft | 9 kts | 279° |
| 2026-05-08 13:08 | -7.37661 | 112.79350 | 10 ft | 8 kts | 279° |
| 2026-05-08 13:08 | -7.37651 | 112.79290 | 9 ft | 10 kts | 279° |
| 2026-05-08 13:08 | -7.37639 | 112.79211 | 9 ft | 12 kts | 279° |
| 2026-05-08 13:09 | -7.37627 | 112.79139 | 9 ft | 9 kts | 279° |
| 2026-05-08 13:09 | -7.37653 | 112.79099 | 9 ft | 7 kts | 194° |
| 2026-05-08 13:09 | -7.37708 | 112.79090 | 11 ft | 8 kts | 189° |
| 2026-05-08 13:09 | -7.37760 | 112.79082 | 9 ft | 7 kts | 189° |
| 2026-05-08 13:10 | -7.37814 | 112.79073 | 9 ft | 8 kts | 189° |
| 2026-05-08 13:10 | -7.37853 | 112.79044 | 9 ft | 7 kts | 246° |
| 2026-05-08 13:10 | -7.37854 | 112.78980 | 9 ft | 11 kts | 277° |
| 2026-05-08 13:10 | -7.37843 | 112.78905 | 9 ft | 10 kts | 279° |
| 2026-05-08 13:11 | -7.37832 | 112.78838 | 9 ft | 9 kts | 279° |
| 2026-05-08 13:11 | -7.37822 | 112.78780 | 9 ft | 8 kts | 279° |
| 2026-05-08 13:11 | -7.37814 | 112.78728 | 9 ft | 7 kts | 279° |
| 2026-05-08 13:11 | -7.37806 | 112.78681 | 9 ft | 8 kts | 279° |
| 2026-05-08 13:12 | -7.37796 | 112.78620 | 9 ft | 10 kts | 279° |
| 2026-05-08 13:12 | -7.37784 | 112.78541 | 9 ft | 13 kts | 279° |
| 2026-05-08 13:12 | -7.37770 | 112.78452 | 9 ft | 12 kts | 279° |
| 2026-05-08 13:12 | -7.37755 | 112.78364 | 9 ft | 14 kts | 279° |
| 2026-05-08 13:13 | -7.37738 | 112.78256 | 9 ft | 17 kts | 279° |
| 2026-05-08 13:13 | -7.37718 | 112.78138 | 11 ft | 17 kts | 279° |
| 2026-05-08 13:13 | -7.37702 | 112.78028 | 9 ft | 15 kts | 279° |
| 2026-05-08 13:13 | -7.37684 | 112.77918 | 9 ft | 17 kts | 279° |
| 2026-05-08 13:14 | -7.37665 | 112.77803 | 9 ft | 16 kts | 279° |
| 2026-05-08 13:14 | -7.37647 | 112.77695 | 11 ft | 16 kts | 279° |
| 2026-05-08 13:14 | -7.37629 | 112.77579 | 9 ft | 16 kts | 279° |
| 2026-05-08 13:14 | -7.37614 | 112.77486 | 9 ft | 13 kts | 279° |
| 2026-05-08 13:15 | -7.37621 | 112.77405 | 11 ft | 11 kts | 236° |
| 2026-05-08 13:15 | -7.37686 | 112.77378 | 8 ft | 10 kts | 189° |
| 2026-05-08 13:15 | -7.37745 | 112.77368 | 9 ft | 8 kts | 189° |
| 2026-05-08 13:15 | -7.37773 | 112.77391 | 10 ft | 4 kts | 107° |
| 2026-05-08 13:16 | -7.37778 | 112.77417 | 9 ft | 3 kts | 100° |
| 2026-05-08 13:16 | -7.37779 | 112.77426 | 9 ft | 0 kts | 99° |
| 2026-05-08 13:17 | -7.37787 | 112.77469 | 9 ft | 24 kts | 99° |
| 2026-05-08 13:17 | -7.37854 | 112.77891 | 10 ft | 94 kts | 99° |
| 2026-05-08 13:17 | -7.37992 | 112.78734 | 13 ft | 148 kts | 99° |
| 2026-05-08 13:17 | -7.38172 | 112.79827 | 357 ft | 163 kts | 98° |
| 2026-05-08 13:18 | -7.38365 | 112.80985 | 953 ft | 170 kts | 99° |
| 2026-05-08 13:18 | -7.38557 | 112.82168 | 1548 ft | 177 kts | 99° |
| 2026-05-08 13:18 | -7.38765 | 112.83471 | 1855 ft | 199 kts | 100° |
| 2026-05-08 13:18 | -7.38998 | 112.84940 | 2136 ft | 225 kts | 99° |
| 2026-05-08 13:19 | -7.39258 | 112.86573 | 2524 ft | 248 kts | 100° |
| 2026-05-08 13:19 | -7.39538 | 112.88327 | 3179 ft | 258 kts | 100° |
| 2026-05-08 13:19 | -7.39573 | 112.90155 | 3905 ft | 267 kts | 79° |
| 2026-05-08 13:19 | -7.38820 | 112.91866 | 4645 ft | 274 kts | 52° |
| 2026-05-08 13:20 | -7.37322 | 112.93069 | 5379 ft | 279 kts | 24° |
| 2026-05-08 13:20 | -7.35497 | 112.93776 | 6181 ft | 282 kts | 20° |
| 2026-05-08 13:20 | -7.33646 | 112.94455 | 6928 ft | 286 kts | 20° |
| 2026-05-08 13:20 | -7.31769 | 112.95139 | 7676 ft | 288 kts | 20° |
| 2026-05-08 13:21 | -7.29869 | 112.95832 | 8427 ft | 291 kts | 21° |
| 2026-05-08 13:21 | -7.27954 | 112.96534 | 9178 ft | 294 kts | 21° |
| 2026-05-08 13:21 | -7.26022 | 112.97246 | 9899 ft | 297 kts | 21° |
| 2026-05-08 13:21 | -7.24058 | 112.97973 | 10351 ft | 310 kts | 21° |
| 2026-05-08 13:22 | -7.21960 | 112.98753 | 10503 ft | 333 kts | 21° |
| 2026-05-08 13:22 | -7.19749 | 112.99574 | 10924 ft | 343 kts | 21° |
| 2026-05-08 13:22 | -7.17489 | 113.00413 | 11504 ft | 348 kts | 21° |
| 2026-05-08 13:22 | -7.15208 | 113.01260 | 12100 ft | 352 kts | 21° |
| 2026-05-08 13:23 | -7.12891 | 113.02120 | 12708 ft | 356 kts | 21° |
| 2026-05-08 13:23 | -7.10553 | 113.02987 | 13300 ft | 360 kts | 21° |
| 2026-05-08 13:23 | -7.08184 | 113.03864 | 13865 ft | 364 kts | 21° |
| 2026-05-08 13:23 | -7.05795 | 113.04748 | 14378 ft | 368 kts | 21° |
| 2026-05-08 13:24 | -7.03375 | 113.05642 | 14897 ft | 371 kts | 21° |
| 2026-05-08 13:24 | -7.00936 | 113.06543 | 15415 ft | 375 kts | 21° |
| 2026-05-08 13:24 | -6.98482 | 113.07449 | 15923 ft | 378 kts | 21° |
| 2026-05-08 13:24 | -6.96000 | 113.08366 | 16408 ft | 382 kts | 21° |
| 2026-05-08 13:25 | -6.93496 | 113.09293 | 16893 ft | 385 kts | 21° |
| 2026-05-08 13:25 | -6.90972 | 113.10228 | 17378 ft | 389 kts | 21° |
| 2026-05-08 13:25 | -6.88419 | 113.11176 | 17854 ft | 392 kts | 21° |
| 2026-05-08 13:25 | -6.85851 | 113.12130 | 18299 ft | 396 kts | 21° |
| 2026-05-08 13:26 | -6.83254 | 113.13093 | 18716 ft | 399 kts | 21° |
| 2026-05-08 13:26 | -6.80646 | 113.14057 | 19152 ft | 401 kts | 21° |
| 2026-05-08 13:26 | -6.78907 | 113.14697 | 19434 ft | 402 kts | 21° |
| 2026-05-08 13:26 | -6.75376 | 113.15998 | 20029 ft | 406 kts | 21° |
| 2026-05-08 13:27 | -6.73616 | 113.16649 | 20317 ft | 407 kts | 21° |
| 2026-05-08 13:27 | -6.70953 | 113.17635 | 20755 ft | 410 kts | 21° |
| 2026-05-08 13:27 | -6.68267 | 113.18629 | 21197 ft | 412 kts | 21° |
| 2026-05-08 13:27 | -6.64698 | 113.19949 | 21809 ft | 414 kts | 21° |
| 2026-05-08 13:28 | -6.62871 | 113.20627 | 22128 ft | 415 kts | 21° |
| 2026-05-08 13:28 | -6.59267 | 113.21962 | 22739 ft | 417 kts | 20° |
| 2026-05-08 13:28 | -6.57430 | 113.22641 | 23035 ft | 419 kts | 20° |
| 2026-05-08 13:28 | -6.54684 | 113.23655 | 23465 ft | 420 kts | 20° |
| 2026-05-08 13:29 | -6.51937 | 113.24671 | 23821 ft | 422 kts | 20° |
| 2026-05-08 13:29 | -6.49176 | 113.25692 | 24166 ft | 424 kts | 20° |
| 2026-05-08 13:29 | -6.46402 | 113.26716 | 24501 ft | 426 kts | 20° |
| 2026-05-08 13:29 | -6.43654 | 113.27730 | 24829 ft | 427 kts | 20° |
| 2026-05-08 13:30 | -6.40852 | 113.28765 | 25156 ft | 429 kts | 20° |
| 2026-05-08 13:30 | -6.38046 | 113.29804 | 25475 ft | 431 kts | 20° |
| 2026-05-08 13:30 | -6.35224 | 113.30846 | 25788 ft | 433 kts | 20° |
| 2026-05-08 13:30 | -6.32394 | 113.31889 | 26102 ft | 435 kts | 20° |
| 2026-05-08 13:31 | -6.29553 | 113.32936 | 26399 ft | 436 kts | 20° |
| 2026-05-08 13:31 | -6.26693 | 113.33991 | 26690 ft | 438 kts | 20° |
| 2026-05-08 13:31 | -6.23873 | 113.35165 | 26966 ft | 440 kts | 26° |
| 2026-05-08 13:31 | -6.21113 | 113.36520 | 27246 ft | 442 kts | 26° |
| 2026-05-08 13:32 | -6.18348 | 113.37872 | 27518 ft | 444 kts | 26° |
| 2026-05-08 13:32 | -6.15564 | 113.39230 | 27776 ft | 446 kts | 26° |
| 2026-05-08 13:32 | -6.12764 | 113.40597 | 28040 ft | 448 kts | 26° |
| 2026-05-08 13:32 | -6.09964 | 113.41967 | 28304 ft | 449 kts | 26° |
| 2026-05-08 13:33 | -6.07148 | 113.43345 | 28565 ft | 451 kts | 26° |
| 2026-05-08 13:33 | -6.04314 | 113.44730 | 28802 ft | 453 kts | 26° |
| 2026-05-08 13:33 | -6.01476 | 113.46114 | 29054 ft | 455 kts | 26° |
| 2026-05-08 13:33 | -5.98623 | 113.47502 | 29294 ft | 457 kts | 26° |
| 2026-05-08 13:34 | -5.95755 | 113.48897 | 29536 ft | 458 kts | 26° |
| 2026-05-08 13:34 | -5.92879 | 113.50299 | 29771 ft | 460 kts | 26° |
| 2026-05-08 13:34 | -5.89996 | 113.51705 | 29988 ft | 462 kts | 26° |
| 2026-05-08 13:34 | -5.87102 | 113.53119 | 30173 ft | 464 kts | 26° |
| 2026-05-08 13:35 | -5.84233 | 113.54524 | 30361 ft | 465 kts | 26° |
| 2026-05-08 13:35 | -5.81329 | 113.55946 | 30542 ft | 466 kts | 26° |
| 2026-05-08 13:35 | -5.78406 | 113.57372 | 30716 ft | 468 kts | 26° |
| 2026-05-08 13:35 | -5.75471 | 113.58803 | 30896 ft | 469 kts | 26° |
| 2026-05-08 13:36 | -5.72526 | 113.60238 | 31071 ft | 471 kts | 26° |
| 2026-05-08 13:36 | -5.69590 | 113.61667 | 31314 ft | 470 kts | 26° |
| 2026-05-08 13:36 | -5.66642 | 113.63103 | 31567 ft | 469 kts | 26° |
| 2026-05-08 13:36 | -5.63709 | 113.64532 | 31826 ft | 469 kts | 26° |
| 2026-05-08 13:37 | -5.60777 | 113.65958 | 32080 ft | 468 kts | 26° |
| 2026-05-08 13:37 | -5.57861 | 113.67379 | 32329 ft | 468 kts | 26° |
| 2026-05-08 13:37 | -5.54947 | 113.68805 | 32576 ft | 467 kts | 26° |
| 2026-05-08 13:37 | -5.52005 | 113.70246 | 32822 ft | 467 kts | 26° |
| 2026-05-08 13:38 | -5.49041 | 113.71691 | 33081 ft | 467 kts | 26° |
| 2026-05-08 13:38 | -5.46161 | 113.73090 | 33332 ft | 466 kts | 26° |
| 2026-05-08 13:38 | -5.43201 | 113.74528 | 33591 ft | 466 kts | 26° |
| 2026-05-08 13:38 | -5.40290 | 113.75946 | 33827 ft | 466 kts | 26° |
| 2026-05-08 13:39 | -5.37363 | 113.77375 | 34049 ft | 466 kts | 26° |
| 2026-05-08 13:39 | -5.34448 | 113.78793 | 34272 ft | 465 kts | 26° |
| 2026-05-08 13:39 | -5.31535 | 113.80211 | 34491 ft | 465 kts | 26° |
| 2026-05-08 13:39 | -5.28632 | 113.81623 | 34697 ft | 464 kts | 26° |
| 2026-05-08 13:40 | -5.25728 | 113.83040 | 34852 ft | 465 kts | 26° |
| 2026-05-08 13:40 | -5.22836 | 113.84450 | 34896 ft | 457 kts | 26° |
| 2026-05-08 13:40 | -5.17127 | 113.87228 | 34897 ft | 455 kts | 26° |
| 2026-05-08 13:41 | -5.11428 | 113.89999 | 34899 ft | 455 kts | 26° |
| 2026-05-08 13:41 | -5.05738 | 113.92767 | 34902 ft | 455 kts | 26° |
| 2026-05-08 13:42 | -5.00044 | 113.95536 | 34901 ft | 455 kts | 26° |
| 2026-05-08 13:42 | -4.94430 | 113.98465 | 34907 ft | 454 kts | 34° |
| 2026-05-08 13:43 | -4.89155 | 114.01967 | 34908 ft | 454 kts | 33° |
| 2026-05-08 13:43 | -4.83897 | 114.05455 | 34912 ft | 454 kts | 34° |
| 2026-05-08 13:44 | -4.78621 | 114.08958 | 34914 ft | 454 kts | 34° |
| 2026-05-08 13:44 | -4.73342 | 114.12453 | 34910 ft | 454 kts | 33° |
| 2026-05-08 13:45 | -4.68078 | 114.15937 | 34911 ft | 454 kts | 34° |
| 2026-05-08 13:45 | -4.62800 | 114.19430 | 34912 ft | 454 kts | 33° |
| 2026-05-08 13:46 | -4.57526 | 114.22910 | 34909 ft | 454 kts | 33° |
| 2026-05-08 13:46 | -4.52259 | 114.26399 | 34913 ft | 454 kts | 34° |
| 2026-05-08 13:47 | -4.46993 | 114.29893 | 34911 ft | 454 kts | 34° |
| 2026-05-08 13:47 | -4.41733 | 114.33387 | 34911 ft | 453 kts | 34° |
| 2026-05-08 13:48 | -4.36472 | 114.36865 | 34911 ft | 453 kts | 34° |
| 2026-05-08 13:48 | -4.31211 | 114.40339 | 34915 ft | 453 kts | 34° |
| 2026-05-08 13:49 | -4.25948 | 114.43817 | 34913 ft | 453 kts | 34° |
| 2026-05-08 13:49 | -4.20690 | 114.47292 | 34914 ft | 453 kts | 34° |
| 2026-05-08 13:50 | -4.15435 | 114.50775 | 34913 ft | 453 kts | 34° |
| 2026-05-08 13:50 | -4.10183 | 114.54251 | 34912 ft | 453 kts | 34° |
| 2026-05-08 13:51 | -4.04928 | 114.57719 | 34913 ft | 452 kts | 34° |
| 2026-05-08 13:51 | -3.99672 | 114.61189 | 34913 ft | 452 kts | 34° |
| 2026-05-08 13:52 | -3.94425 | 114.64657 | 34907 ft | 452 kts | 34° |
| 2026-05-08 13:52 | -3.89177 | 114.68130 | 34910 ft | 452 kts | 34° |
| 2026-05-08 13:53 | -3.83897 | 114.71622 | 34905 ft | 452 kts | 34° |
| 2026-05-08 13:53 | -3.78653 | 114.75088 | 34905 ft | 451 kts | 34° |
| 2026-05-08 13:54 | -3.73406 | 114.78548 | 34896 ft | 451 kts | 34° |
| 2026-05-08 13:54 | -3.68169 | 114.82009 | 34891 ft | 451 kts | 34° |
| 2026-05-08 13:55 | -3.62936 | 114.85468 | 34887 ft | 450 kts | 34° |
| 2026-05-08 13:56 | -3.55092 | 114.90643 | 34879 ft | 450 kts | 34° |
| 2026-05-08 13:56 | -3.49870 | 114.94086 | 34878 ft | 450 kts | 34° |
| 2026-05-08 13:57 | -3.44635 | 114.97541 | 34882 ft | 450 kts | 34° |
| 2026-05-08 13:57 | -3.39409 | 115.00986 | 34883 ft | 450 kts | 34° |
| 2026-05-08 13:58 | -3.34184 | 115.04436 | 34889 ft | 449 kts | 34° |
| 2026-05-08 13:58 | -3.28968 | 115.07880 | 34894 ft | 449 kts | 34° |
| 2026-05-08 13:59 | -3.23752 | 115.11319 | 34894 ft | 449 kts | 34° |
| 2026-05-08 13:59 | -3.18511 | 115.14779 | 34895 ft | 449 kts | 34° |
| 2026-05-08 14:00 | -3.13301 | 115.18216 | 34898 ft | 448 kts | 34° |
| 2026-05-08 14:00 | -3.08091 | 115.21650 | 34897 ft | 448 kts | 34° |
| 2026-05-08 14:01 | -3.02881 | 115.25087 | 34894 ft | 448 kts | 34° |
| 2026-05-08 14:01 | -2.97667 | 115.28521 | 34903 ft | 449 kts | 34° |
| 2026-05-08 14:02 | -2.92452 | 115.31956 | 34906 ft | 449 kts | 34° |
| 2026-05-08 14:02 | -2.87238 | 115.35396 | 34909 ft | 449 kts | 34° |
| 2026-05-08 14:03 | -2.82030 | 115.38835 | 34907 ft | 449 kts | 34° |
| 2026-05-08 14:03 | -2.76817 | 115.42266 | 34901 ft | 449 kts | 34° |
| 2026-05-08 14:04 | -2.71602 | 115.45702 | 34905 ft | 449 kts | 34° |
| 2026-05-08 14:04 | -2.66393 | 115.49131 | 34912 ft | 448 kts | 34° |
| 2026-05-08 14:05 | -2.61184 | 115.52555 | 34912 ft | 448 kts | 34° |
| 2026-05-08 14:05 | -2.56825 | 115.55425 | 34913 ft | 448 kts | 34° |
| 2026-05-08 14:06 | -2.51620 | 115.58856 | 34909 ft | 447 kts | 34° |
| 2026-05-08 14:06 | -2.46424 | 115.62285 | 34908 ft | 447 kts | 34° |
| 2026-05-08 14:07 | -2.41179 | 115.65741 | 34911 ft | 456 kts | 34° |
| 2026-05-08 14:07 | -2.35878 | 115.69233 | 34914 ft | 456 kts | 34° |
| 2026-05-08 14:08 | -2.30574 | 115.72727 | 34915 ft | 456 kts | 34° |
| 2026-05-08 14:08 | -2.25376 | 115.76142 | 34911 ft | 432 kts | 34° |
| 2026-05-08 14:08 | -2.22921 | 115.77773 | 34911 ft | 416 kts | 38° |
| 2026-05-08 14:09 | -2.20856 | 115.79703 | 34914 ft | 402 kts | 53° |
| 2026-05-08 14:09 | -2.19399 | 115.82091 | 34914 ft | 402 kts | 69° |
| 2026-05-08 14:09 | -2.18643 | 115.84769 | 34915 ft | 401 kts | 84° |
| 2026-05-08 14:09 | -2.18630 | 115.87540 | 34914 ft | 400 kts | 99° |
| 2026-05-08 14:10 | -2.19370 | 115.90220 | 34915 ft | 400 kts | 115° |
| 2026-05-08 14:10 | -2.20805 | 115.92591 | 34915 ft | 400 kts | 130° |
| 2026-05-08 14:10 | -2.22817 | 115.94501 | 34912 ft | 401 kts | 145° |
| 2026-05-08 14:10 | -2.25279 | 115.95811 | 34913 ft | 402 kts | 161° |
| 2026-05-08 14:11 | -2.28003 | 115.96404 | 34914 ft | 403 kts | 176° |
| 2026-05-08 14:11 | -2.30800 | 115.96244 | 34911 ft | 405 kts | 192° |
| 2026-05-08 14:11 | -2.33464 | 115.95316 | 34914 ft | 407 kts | 206° |
| 2026-05-08 14:12 | -2.38363 | 115.92440 | 34918 ft | 408 kts | 212° |
| 2026-05-08 14:12 | -2.43056 | 115.89234 | 34915 ft | 409 kts | 213° |
| 2026-05-08 14:13 | -2.47185 | 115.85381 | 34915 ft | 411 kts | 238° |
| 2026-05-08 14:13 | -2.48403 | 115.82799 | 34917 ft | 413 kts | 253° |
| 2026-05-08 14:13 | -2.48876 | 115.79976 | 34918 ft | 414 kts | 270° |
| 2026-05-08 14:13 | -2.48540 | 115.77121 | 34917 ft | 415 kts | 286° |
| 2026-05-08 14:14 | -2.47424 | 115.74471 | 34914 ft | 415 kts | 303° |
| 2026-05-08 14:14 | -2.45612 | 115.72237 | 34914 ft | 415 kts | 319° |
| 2026-05-08 14:14 | -2.43258 | 115.70601 | 34915 ft | 413 kts | 335° |
| 2026-05-08 14:14 | -2.40551 | 115.69674 | 34912 ft | 412 kts | 352° |
| 2026-05-08 14:15 | -2.37706 | 115.69529 | 34916 ft | 410 kts | 8° |
| 2026-05-08 14:15 | -2.34944 | 115.70182 | 34916 ft | 407 kts | 24° |
| 2026-05-08 14:15 | -2.32413 | 115.71441 | 34916 ft | 407 kts | 31° |
| 2026-05-08 14:16 | -2.27628 | 115.74448 | 34911 ft | 406 kts | 35° |
| 2026-05-08 14:16 | -2.22985 | 115.77657 | 34913 ft | 405 kts | 38° |
| 2026-05-08 14:16 | -2.20970 | 115.79602 | 34908 ft | 403 kts | 55° |
| 2026-05-08 14:17 | -2.19589 | 115.82022 | 34912 ft | 401 kts | 71° |
| 2026-05-08 14:17 | -2.18953 | 115.84723 | 34911 ft | 400 kts | 87° |
| 2026-05-08 14:17 | -2.19131 | 115.87486 | 34914 ft | 400 kts | 104° |
| 2026-05-08 14:17 | -2.20112 | 115.90073 | 34912 ft | 399 kts | 121° |
| 2026-05-08 14:18 | -2.21804 | 115.92262 | 34912 ft | 400 kts | 137° |
| 2026-05-08 14:18 | -2.24065 | 115.93864 | 34913 ft | 401 kts | 154° |
| 2026-05-08 14:18 | -2.26710 | 115.94747 | 34916 ft | 402 kts | 171° |
| 2026-05-08 14:18 | -2.29496 | 115.94832 | 34915 ft | 404 kts | 187° |
| 2026-05-08 14:19 | -2.32203 | 115.94077 | 34915 ft | 406 kts | 205° |
| 2026-05-08 14:19 | -2.37108 | 115.91245 | 34913 ft | 408 kts | 212° |
| 2026-05-08 14:20 | -2.41799 | 115.88062 | 34913 ft | 408 kts | 213° |
| 2026-05-08 14:20 | -2.44065 | 115.86361 | 34908 ft | 408 kts | 224° |
| 2026-05-08 14:20 | -2.45836 | 115.84143 | 34917 ft | 410 kts | 240° |
| 2026-05-08 14:20 | -2.46904 | 115.81501 | 34918 ft | 412 kts | 257° |
| 2026-05-08 14:21 | -2.47158 | 115.78653 | 34918 ft | 413 kts | 275° |
| 2026-05-08 14:21 | -2.46534 | 115.75863 | 34917 ft | 414 kts | 293° |
| 2026-05-08 14:21 | -2.45086 | 115.73387 | 34915 ft | 414 kts | 311° |
| 2026-05-08 14:21 | -2.42966 | 115.71458 | 34916 ft | 413 kts | 329° |
| 2026-05-08 14:22 | -2.40375 | 115.70261 | 34914 ft | 411 kts | 347° |
| 2026-05-08 14:22 | -2.37555 | 115.69886 | 34754 ft | 408 kts | 4° |
| 2026-05-08 14:22 | -2.34779 | 115.70379 | 34524 ft | 404 kts | 22° |
| 2026-05-08 14:22 | -2.32255 | 115.71582 | 34306 ft | 402 kts | 31° |
| 2026-05-08 14:23 | -2.29856 | 115.72999 | 34082 ft | 400 kts | 33° |
| 2026-05-08 14:23 | -2.27532 | 115.74510 | 33856 ft | 398 kts | 35° |
| 2026-05-08 14:23 | -2.25249 | 115.76068 | 33599 ft | 396 kts | 36° |
| 2026-05-08 14:23 | -2.22995 | 115.77632 | 33347 ft | 393 kts | 38° |
| 2026-05-08 14:24 | -2.21054 | 115.79527 | 33088 ft | 389 kts | 56° |
| 2026-05-08 14:24 | -2.19760 | 115.81872 | 32838 ft | 385 kts | 72° |
| 2026-05-08 14:24 | -2.19188 | 115.84466 | 32589 ft | 382 kts | 88° |
| 2026-05-08 14:24 | -2.19391 | 115.87088 | 32348 ft | 379 kts | 105° |
| 2026-05-08 14:25 | -2.20363 | 115.89524 | 32106 ft | 378 kts | 122° |
| 2026-05-08 14:25 | -2.22028 | 115.91585 | 31863 ft | 376 kts | 139° |
| 2026-05-08 14:25 | -2.24175 | 115.93055 | 31631 ft | 375 kts | 155° |
| 2026-05-08 14:25 | -2.26657 | 115.93836 | 31394 ft | 374 kts | 172° |
| 2026-05-08 14:26 | -2.29242 | 115.93868 | 31160 ft | 374 kts | 188° |
| 2026-05-08 14:26 | -2.31732 | 115.93156 | 30928 ft | 373 kts | 205° |
| 2026-05-08 14:26 | -2.34012 | 115.91923 | 30697 ft | 372 kts | 214° |
| 2026-05-08 14:26 | -2.35869 | 115.90147 | 30469 ft | 372 kts | 235° |
| 2026-05-08 14:27 | -2.37058 | 115.87862 | 30244 ft | 371 kts | 252° |
| 2026-05-08 14:27 | -2.37565 | 115.85371 | 30093 ft | 371 kts | 267° |
| 2026-05-08 14:27 | -2.37396 | 115.82772 | 30109 ft | 372 kts | 283° |
| 2026-05-08 14:27 | -2.36536 | 115.80344 | 30113 ft | 372 kts | 299° |
| 2026-05-08 14:28 | -2.35041 | 115.78288 | 30111 ft | 372 kts | 316° |
| 2026-05-08 14:28 | -2.32949 | 115.76726 | 30112 ft | 371 kts | 334° |
| 2026-05-08 14:28 | -2.30525 | 115.75861 | 30113 ft | 371 kts | 351° |
| 2026-05-08 14:28 | -2.27958 | 115.75725 | 30102 ft | 373 kts | 7° |
| 2026-05-08 14:29 | -2.25416 | 115.76374 | 30027 ft | 382 kts | 26° |
| 2026-05-08 14:29 | -2.23210 | 115.77820 | 29948 ft | 380 kts | 45° |
| 2026-05-08 14:29 | -2.21383 | 115.79730 | 29687 ft | 380 kts | 47° |
| 2026-05-08 14:29 | -2.19595 | 115.81661 | 29257 ft | 377 kts | 48° |
| 2026-05-08 14:30 | -2.17828 | 115.83581 | 28833 ft | 374 kts | 48° |
| 2026-05-08 14:30 | -2.16075 | 115.85487 | 28432 ft | 371 kts | 48° |
| 2026-05-08 14:30 | -2.14332 | 115.87374 | 28028 ft | 367 kts | 47° |
| 2026-05-08 14:30 | -2.12604 | 115.89241 | 27638 ft | 365 kts | 47° |
| 2026-05-08 14:31 | -2.10884 | 115.91098 | 27231 ft | 362 kts | 47° |
| 2026-05-08 14:31 | -2.09178 | 115.92940 | 26832 ft | 360 kts | 47° |
| 2026-05-08 14:31 | -2.07485 | 115.94772 | 26424 ft | 358 kts | 47° |
| 2026-05-08 14:32 | -2.04121 | 115.98402 | 25602 ft | 355 kts | 47° |
| 2026-05-08 14:32 | -2.02444 | 116.00207 | 25179 ft | 354 kts | 47° |
| 2026-05-08 14:32 | -2.00767 | 116.02007 | 24752 ft | 353 kts | 47° |
| 2026-05-08 14:32 | -1.99096 | 116.03805 | 24308 ft | 353 kts | 47° |
| 2026-05-08 14:33 | -1.97426 | 116.05604 | 23871 ft | 354 kts | 47° |
| 2026-05-08 14:33 | -1.95748 | 116.07413 | 23413 ft | 354 kts | 47° |
| 2026-05-08 14:33 | -1.94076 | 116.09219 | 22920 ft | 354 kts | 48° |
| 2026-05-08 14:33 | -1.92408 | 116.11020 | 22475 ft | 353 kts | 48° |
| 2026-05-08 14:34 | -1.90741 | 116.12817 | 22041 ft | 351 kts | 48° |
| 2026-05-08 14:34 | -1.89080 | 116.14605 | 21612 ft | 350 kts | 48° |
| 2026-05-08 14:34 | -1.87426 | 116.16386 | 21183 ft | 349 kts | 48° |
| 2026-05-08 14:34 | -1.85781 | 116.18163 | 20761 ft | 348 kts | 48° |
| 2026-05-08 14:35 | -1.84135 | 116.19947 | 20338 ft | 348 kts | 48° |
| 2026-05-08 14:35 | -1.82499 | 116.21728 | 19909 ft | 348 kts | 48° |
| 2026-05-08 14:35 | -1.80872 | 116.23502 | 19476 ft | 348 kts | 48° |
| 2026-05-08 14:35 | -1.79231 | 116.25291 | 19063 ft | 348 kts | 48° |
| 2026-05-08 14:36 | -1.77597 | 116.27071 | 18648 ft | 348 kts | 48° |
| 2026-05-08 14:36 | -1.75954 | 116.28856 | 18218 ft | 349 kts | 48° |
| 2026-05-08 14:36 | -1.74312 | 116.30641 | 17757 ft | 349 kts | 48° |
| 2026-05-08 14:36 | -1.72674 | 116.32422 | 17336 ft | 347 kts | 48° |
| 2026-05-08 14:37 | -1.71041 | 116.34194 | 16922 ft | 345 kts | 48° |
| 2026-05-08 14:37 | -1.69426 | 116.35952 | 16645 ft | 340 kts | 48° |
| 2026-05-08 14:37 | -1.67848 | 116.37678 | 16401 ft | 334 kts | 49° |
| 2026-05-08 14:37 | -1.66296 | 116.39379 | 16158 ft | 330 kts | 49° |
| 2026-05-08 14:38 | -1.64735 | 116.41092 | 15905 ft | 328 kts | 48° |
| 2026-05-08 14:38 | -1.63202 | 116.42779 | 15658 ft | 327 kts | 50° |
| 2026-05-08 14:38 | -1.61962 | 116.44664 | 15420 ft | 325 kts | 62° |
| 2026-05-08 14:38 | -1.60895 | 116.46616 | 15186 ft | 323 kts | 62° |
| 2026-05-08 14:39 | -1.59808 | 116.48607 | 14952 ft | 322 kts | 62° |
| 2026-05-08 14:39 | -1.58735 | 116.50576 | 14718 ft | 321 kts | 62° |
| 2026-05-08 14:39 | -1.57674 | 116.52526 | 14495 ft | 319 kts | 62° |
| 2026-05-08 14:39 | -1.56621 | 116.54464 | 14216 ft | 316 kts | 62° |
| 2026-05-08 14:40 | -1.55588 | 116.56367 | 13863 ft | 316 kts | 62° |
| 2026-05-08 14:40 | -1.54523 | 116.58329 | 13464 ft | 317 kts | 62° |
| 2026-05-08 14:40 | -1.53473 | 116.60261 | 13070 ft | 316 kts | 62° |
| 2026-05-08 14:40 | -1.52425 | 116.62186 | 12692 ft | 315 kts | 62° |
| 2026-05-08 14:41 | -1.51381 | 116.64103 | 12302 ft | 314 kts | 62° |
| 2026-05-08 14:41 | -1.50692 | 116.65369 | 12050 ft | 313 kts | 62° |
| 2026-05-08 14:41 | -1.49300 | 116.67927 | 11578 ft | 311 kts | 62° |
| 2026-05-08 14:41 | -1.48623 | 116.69171 | 11395 ft | 308 kts | 62° |
| 2026-05-08 14:42 | -1.47601 | 116.71048 | 11008 ft | 307 kts | 62° |
| 2026-05-08 14:42 | -1.46581 | 116.72928 | 10610 ft | 307 kts | 62° |
| 2026-05-08 14:42 | -1.45564 | 116.74802 | 10283 ft | 305 kts | 62° |
| 2026-05-08 14:42 | -1.44564 | 116.76643 | 9898 ft | 304 kts | 62° |
| 2026-05-08 14:43 | -1.43544 | 116.78518 | 9599 ft | 298 kts | 61° |
| 2026-05-08 14:43 | -1.42585 | 116.80341 | 9005 ft | 293 kts | 67° |
| 2026-05-08 14:43 | -1.41887 | 116.82235 | 8743 ft | 293 kts | 70° |
| 2026-05-08 14:43 | -1.41193 | 116.84136 | 8498 ft | 290 kts | 70° |
| 2026-05-08 14:44 | -1.40495 | 116.86026 | 8259 ft | 289 kts | 69° |
| 2026-05-08 14:44 | -1.39802 | 116.87896 | 8017 ft | 288 kts | 69° |
| 2026-05-08 14:44 | -1.39105 | 116.89777 | 7776 ft | 287 kts | 69° |
| 2026-05-08 14:44 | -1.38419 | 116.91640 | 7538 ft | 286 kts | 69° |
| 2026-05-08 14:45 | -1.37735 | 116.93502 | 7300 ft | 284 kts | 69° |
| 2026-05-08 14:45 | -1.37057 | 116.95352 | 7063 ft | 283 kts | 69° |
| 2026-05-08 14:45 | -1.36383 | 116.97198 | 6754 ft | 282 kts | 69° |
| 2026-05-08 14:45 | -1.35714 | 116.99031 | 6419 ft | 279 kts | 69° |
| 2026-05-08 14:46 | -1.35052 | 117.00846 | 6072 ft | 277 kts | 69° |
| 2026-05-08 14:46 | -1.34398 | 117.02638 | 5736 ft | 272 kts | 69° |
| 2026-05-08 14:46 | -1.33756 | 117.04404 | 5412 ft | 269 kts | 69° |
| 2026-05-08 14:46 | -1.33123 | 117.06148 | 5090 ft | 265 kts | 69° |
| 2026-05-08 14:47 | -1.32498 | 117.07861 | 4775 ft | 261 kts | 68° |
| 2026-05-08 14:47 | -1.31865 | 117.09519 | 4454 ft | 248 kts | 61° |
| 2026-05-08 14:47 | -1.30838 | 117.10822 | 4172 ft | 233 kts | 36° |
| 2026-05-08 14:47 | -1.29437 | 117.11556 | 3902 ft | 227 kts | 13° |
| 2026-05-08 14:48 | -1.27904 | 117.11665 | 3737 ft | 214 kts | 350° |
| 2026-05-08 14:48 | -1.26533 | 117.11240 | 3660 ft | 202 kts | 335° |
| 2026-05-08 14:48 | -1.25244 | 117.10688 | 3569 ft | 201 kts | 336° |
| 2026-05-08 14:48 | -1.23954 | 117.10142 | 3467 ft | 202 kts | 336° |
| 2026-05-08 14:49 | -1.22660 | 117.09594 | 3376 ft | 202 kts | 335° |
| 2026-05-08 14:49 | -1.21479 | 117.08851 | 3344 ft | 201 kts | 316° |
| 2026-05-08 14:49 | -1.20629 | 117.07756 | 3280 ft | 200 kts | 296° |
| 2026-05-08 14:49 | -1.20210 | 117.06443 | 3144 ft | 199 kts | 276° |
| 2026-05-08 14:50 | -1.20270 | 117.05075 | 2949 ft | 198 kts | 256° |
| 2026-05-08 14:50 | -1.20750 | 117.03785 | 2721 ft | 198 kts | 247° |
| 2026-05-08 14:50 | -1.21280 | 117.02537 | 2491 ft | 192 kts | 247° |
| 2026-05-08 14:50 | -1.21796 | 117.01320 | 2240 ft | 188 kts | 246° |
| 2026-05-08 14:51 | -1.22294 | 117.00147 | 1991 ft | 177 kts | 246° |
| 2026-05-08 14:51 | -1.22757 | 116.99052 | 1779 ft | 166 kts | 246° |
| 2026-05-08 14:51 | -1.23197 | 116.98014 | 1575 ft | 154 kts | 246° |
| 2026-05-08 14:51 | -1.23595 | 116.97075 | 1374 ft | 143 kts | 246° |
| 2026-05-08 14:52 | -1.23977 | 116.96173 | 1217 ft | 138 kts | 246° |
| 2026-05-08 14:52 | -1.24722 | 116.94417 | 853 ft | 137 kts | 246° |
| 2026-05-08 14:52 | -1.25095 | 116.93538 | 677 ft | 138 kts | 247° |
| 2026-05-08 14:53 | -1.25473 | 116.92658 | 524 ft | 138 kts | 247° |
| 2026-05-08 14:53 | -1.25850 | 116.91771 | 315 ft | 137 kts | 247° |
| 2026-05-08 14:53 | -1.26221 | 116.90900 | 125 ft | 136 kts | 247° |
| 2026-05-08 14:53 | -1.26588 | 116.90038 | 28 ft | 128 kts | 248° |
| 2026-05-08 14:54 | -1.26873 | 116.89365 | 21 ft | 67 kts | 247° |
| 2026-05-08 14:54 | -1.26982 | 116.89106 | 20 ft | 30 kts | 247° |
| 2026-05-08 14:54 | -1.27026 | 116.88999 | 19 ft | 13 kts | 252° |
| 2026-05-08 14:54 | -1.26987 | 116.88941 | 20 ft | 8 kts | 334° |
| 2026-05-08 14:55 | -1.26941 | 116.88921 | 21 ft | 6 kts | 336° |
| 2026-05-08 14:55 | -1.26885 | 116.88924 | 21 ft | 10 kts | 33° |
| 2026-05-08 14:55 | -1.26852 | 116.88981 | 21 ft | 9 kts | 66° |
| 2026-05-08 14:55 | -1.26828 | 116.89037 | 22 ft | 10 kts | 66° |
| 2026-05-08 14:56 | -1.26799 | 116.89103 | 22 ft | 10 kts | 66° |
| 2026-05-08 14:56 | -1.26772 | 116.89165 | 21 ft | 11 kts | 66° |
| 2026-05-08 14:56 | -1.26736 | 116.89250 | 21 ft | 15 kts | 67° |
| 2026-05-08 14:56 | -1.26697 | 116.89341 | 22 ft | 13 kts | 67° |
| 2026-05-08 14:57 | -1.26663 | 116.89422 | 21 ft | 12 kts | 67° |
| 2026-05-08 14:57 | -1.26632 | 116.89495 | 23 ft | 11 kts | 67° |
| 2026-05-08 14:57 | -1.26600 | 116.89571 | 22 ft | 13 kts | 67° |
| 2026-05-08 14:57 | -1.26562 | 116.89662 | 21 ft | 15 kts | 67° |
| 2026-05-08 14:58 | -1.26521 | 116.89755 | 21 ft | 14 kts | 67° |
| 2026-05-08 14:58 | -1.26484 | 116.89848 | 21 ft | 15 kts | 68° |
| 2026-05-08 14:58 | -1.26448 | 116.89937 | 21 ft | 14 kts | 67° |
| 2026-05-08 14:58 | -1.26413 | 116.90018 | 22 ft | 10 kts | 67° |
| 2026-05-08 14:59 | -1.26378 | 116.90061 | 21 ft | 7 kts | 14° |
| 2026-05-08 14:59 | -1.26341 | 116.89974 | 21 ft | 9 kts | 245° |
| 2026-05-08 14:59 | -1.26357 | 116.89921 | 21 ft | 8 kts | 279° |
| 2026-05-08 15:00 | -1.26319 | 116.89896 | 21 ft | 2 kts | 336° |
| 2026-05-08 15:00 | -1.26308 | 116.89891 | 21 ft | 2 kts | 336° |
| 2026-05-08 15:00 | -1.26299 | 116.89887 | 23 ft | 1 kts | 336° |
| 2026-05-08 15:00 | -1.26298 | 116.89887 | 23 ft | 0 kts | 336° |
| 2026-05-08 15:07 | -1.23388 | 116.97565 | 1473 ft | 147 kts | 246° |
| 2026-05-08 15:07 | -1.23707 | 116.96811 | 1329 ft | 137 kts | 246° |
| 2026-05-08 15:07 | -1.24015 | 116.96084 | 1201 ft | 137 kts | 246° |
| 2026-05-08 15:08 | -1.24327 | 116.95349 | 1047 ft | 136 kts | 246° |
| 2026-05-08 15:08 | -1.24553 | 116.94815 | 942 ft | 137 kts | 246° |
| 2026-05-08 15:08 | -1.24968 | 116.93836 | 731 ft | 137 kts | 247° |
| 2026-05-08 15:08 | -1.25288 | 116.93092 | 610 ft | 136 kts | 246° |
| 2026-05-08 15:09 | -1.25609 | 116.92338 | 453 ft | 138 kts | 247° |
| 2026-05-08 15:09 | -1.25977 | 116.91474 | 250 ft | 135 kts | 247° |
| 2026-05-08 15:09 | -1.23526 | 116.97238 | 1406 ft | 142 kts | 246° |
| 2026-05-08 15:09 | -1.23840 | 116.96497 | 1293 ft | 138 kts | 246° |
| 2026-05-08 15:10 | -1.24146 | 116.95775 | 1132 ft | 136 kts | 246° |
| 2026-05-08 15:10 | -1.24474 | 116.95002 | 978 ft | 136 kts | 246° |
| 2026-05-08 15:10 | -1.24785 | 116.94268 | 796 ft | 136 kts | 246° |
| 2026-05-08 15:10 | -1.25103 | 116.93520 | 683 ft | 138 kts | 247° |
| 2026-05-08 15:11 | -1.25427 | 116.92767 | 561 ft | 136 kts | 247° |
| 2026-05-08 15:11 | -1.25771 | 116.91957 | 381 ft | 139 kts | 247° |
| 2026-05-08 15:11 | -1.26139 | 116.91093 | 171 ft | 134 kts | 247° |
| 2026-05-08 15:11 | -1.26520 | 116.90200 | 35 ft | 132 kts | 246° |
| 2026-05-08 15:12 | -1.26828 | 116.89471 | 23 ft | 86 kts | 247° |
| 2026-05-08 15:12 | -1.26949 | 116.89185 | 20 ft | 35 kts | 247° |
| 2026-05-08 15:12 | -1.25707 | 116.92107 | 414 ft | 141 kts | 248° |
| 2026-05-08 15:12 | -1.26085 | 116.91221 | 227 ft | 135 kts | 247° |
| 2026-05-08 15:13 | -1.26339 | 116.90624 | 82 ft | 135 kts | 247° |
| 2026-05-08 15:13 | -1.26692 | 116.89792 | 25 ft | 119 kts | 247° |
| 2026-05-08 15:13 | -1.26937 | 116.89213 | 20 ft | 36 kts | 247° |
| 2026-05-08 15:13 | -1.27003 | 116.89055 | 19 ft | 16 kts | 247° |
| 2026-05-08 15:14 | -1.25628 | 116.92294 | 448 ft | 132 kts | 247° |
| 2026-05-08 15:14 | -1.25617 | 116.92319 | 431 ft | 168 kts | 247° |
| 2026-05-08 15:15 | -1.25774 | 116.91950 | 386 ft | 139 kts | 247° |
| 2026-05-08 15:15 | -1.26142 | 116.91085 | 168 ft | 134 kts | 247° |
| 2026-05-08 15:15 | -1.26527 | 116.90181 | 34 ft | 132 kts | 246° |
| 2026-05-08 15:15 | -1.26826 | 116.89476 | 24 ft | 86 kts | 247° |